Time;durP1;ratioP1;P1;durP2;ratioP2;P2;SDS_P1;SDS_P2;PMS_P1;PMS_P2;Temp;Humidity;BMP_temperature;BMP_pressure;BME280_temperature;BME280_humidity;BME280_pressure;Samples;Min_cycle;Max_cycle;Signal;HPM_P1;HPM_P2
2022/07/24 00:01:15;;;;;;;4.47;2.10;;;21.40;99.90;;;;;;5073171;28;20455;-82
2022/07/24 00:03:42;;;;;;;1.77;1.67;;;21.40;99.90;;;;;;5073955;28;20448;-82
2022/07/24 00:06:09;;;;;;;4.10;1.93;;;21.40;99.90;;;;;;5073171;28;20444;-82
2022/07/24 00:08:36;;;;;;;2.87;1.70;;;21.30;99.90;;;;;;5072679;28;20468;-82
2022/07/24 00:11:03;;;;;;;6.43;2.37;;;21.30;99.90;;;;;;5072736;28;20540;-82
2022/07/24 00:13:31;;;;;;;1.77;1.67;;;21.30;99.90;;;;;;5073203;28;20491;-83
2022/07/24 00:15:58;;;;;;;1.83;1.67;;;21.30;99.90;;;;;;5073036;28;20475;-83
2022/07/24 00:18:24;;;;;;;3.73;1.27;;;21.20;99.90;;;;;;5072910;28;20487;-82
2022/07/24 00:20:51;;;;;;;2.47;1.60;;;21.20;99.90;;;;;;5073089;28;20475;-82
2022/07/24 00:23:18;;;;;;;2.57;1.60;;;21.20;99.90;;;;;;5072604;28;20817;-83
2022/07/24 00:25:45;;;;;;;3.63;2.00;;;21.20;99.90;;;;;;5073133;28;20534;-83
2022/07/24 00:28:12;;;;;;;2.07;1.87;;;21.10;99.90;;;;;;5075246;28;20467;-82
2022/07/24 00:30:40;;;;;;;3.33;2.60;;;21.10;99.90;;;;;;5076392;28;20488;-83
2022/07/24 00:33:07;;;;;;;2.63;1.60;;;21.10;99.90;;;;;;5076173;28;20995;-82
2022/07/24 00:35:34;;;;;;;2.33;1.83;;;21.10;99.90;;;;;;5076245;28;20488;-83
2022/07/24 00:38:01;;;;;;;2.10;1.60;;;21.00;99.90;;;;;;5075879;28;20486;-83
2022/07/24 00:40:29;;;;;;;4.00;2.30;;;21.10;99.90;;;;;;5076500;28;20871;-83
2022/07/24 00:42:57;;;;;;;1.80;1.70;;;21.00;99.90;;;;;;5076355;28;20474;-82
2022/07/24 00:45:25;;;;;;;4.07;2.33;;;21.00;99.90;;;;;;5076380;28;20452;-82
2022/07/24 00:47:53;;;;;;;1.73;1.40;;;21.00;99.90;;;;;;5076371;28;20547;-83
2022/07/24 00:50:20;;;;;;;4.03;2.07;;;21.00;99.90;;;;;;5075997;28;21098;-83
2022/07/24 00:52:47;;;;;;;2.10;1.70;;;21.00;99.90;;;;;;5076120;28;20495;-83
2022/07/24 00:55:15;;;;;;;1.53;1.40;;;21.00;99.90;;;;;;5077037;28;20617;-82
2022/07/24 00:57:43;;;;;;;2.17;1.87;;;21.00;99.90;;;;;;5076481;28;20793;-82
2022/07/24 01:00:12;;;;;;;2.63;1.33;;;21.00;99.90;;;;;;5075753;28;20468;-83
2022/07/24 01:02:40;;;;;;;2.90;1.70;;;21.00;99.90;;;;;;5075719;28;20819;-82
2022/07/24 01:05:09;;;;;;;2.70;1.63;;;21.00;99.90;;;;;;5075699;28;20449;-83
2022/07/24 01:07:36;;;;;;;1.77;1.60;;;21.00;99.90;;;;;;5075963;28;20527;-82
2022/07/24 01:10:04;;;;;;;1.57;1.40;;;21.00;99.90;;;;;;5075549;28;20472;-82
2022/07/24 01:12:32;;;;;;;2.10;1.63;;;21.00;99.90;;;;;;5075772;28;20470;-82
2022/07/24 01:14:59;;;;;;;4.40;2.60;;;21.10;99.90;;;;;;5075791;28;20540;-82
2022/07/24 01:17:30;;;;;;;3.33;1.80;;;21.10;99.90;;;;;;5075436;28;20452;-82
2022/07/24 01:19:57;;;;;;;1.67;1.23;;;21.00;99.90;;;;;;5075439;28;20460;-82
2022/07/24 01:22:26;;;;;;;2.83;1.80;;;21.00;99.90;;;;;;5075622;28;20448;-83
2022/07/24 01:24:53;;;;;;;2.20;2.00;;;21.00;99.90;;;;;;5075682;28;20440;-82
2022/07/24 01:27:21;;;;;;;2.90;1.90;;;21.00;99.90;;;;;;5075625;28;20456;-82
2022/07/24 01:29:47;;;;;;;2.40;1.40;;;21.00;99.90;;;;;;5075538;28;20471;-82
2022/07/24 01:32:14;;;;;;;2.50;1.73;;;20.90;99.90;;;;;;5075212;28;20964;-83
2022/07/24 01:34:41;;;;;;;3.10;2.40;;;20.90;99.90;;;;;;5075063;28;20494;-82
2022/07/24 01:37:08;;;;;;;3.43;1.87;;;20.90;99.90;;;;;;5075422;28;20452;-83
2022/07/24 01:39:36;;;;;;;2.90;1.50;;;20.90;99.90;;;;;;5074725;28;20484;-83
2022/07/24 01:42:03;;;;;;;5.33;1.60;;;20.80;99.90;;;;;;5075319;28;20448;-82
2022/07/24 01:44:30;;;;;;;4.57;1.70;;;20.80;99.90;;;;;;5076145;28;20452;-82
2022/07/24 01:46:57;;;;;;;4.83;1.67;;;20.70;99.90;;;;;;5075196;28;20448;-82
2022/07/24 01:49:24;;;;;;;2.70;2.10;;;20.70;99.90;;;;;;5075089;28;20460;-82
2022/07/24 01:51:50;;;;;;;1.63;1.10;;;20.70;99.90;;;;;;5074796;28;20456;-82
2022/07/24 01:54:17;;;;;;;2.40;1.57;;;20.60;99.90;;;;;;5075025;28;20479;-82
2022/07/24 01:56:46;;;;;;;3.17;1.87;;;20.60;99.90;;;;;;5075031;28;20490;-82
2022/07/24 01:59:12;;;;;;;4.07;1.77;;;20.60;99.90;;;;;;5074926;28;20477;-83
2022/07/24 02:01:39;;;;;;;2.33;1.50;;;20.60;99.90;;;;;;5074916;28;20440;-83
2022/07/24 02:04:06;;;;;;;2.83;2.07;;;20.50;99.90;;;;;;5074590;28;20440;-82
2022/07/24 02:06:33;;;;;;;3.20;1.97;;;20.50;99.90;;;;;;5074811;28;20448;-83
2022/07/24 02:09:00;;;;;;;2.50;1.57;;;20.50;99.90;;;;;;5074962;28;20464;-83
2022/07/24 02:11:27;;;;;;;3.73;2.13;;;20.40;99.90;;;;;;5074599;28;20449;-82
2022/07/24 02:13:56;;;;;;;3.83;1.50;;;20.40;99.90;;;;;;5074541;28;20480;-82
2022/07/24 02:16:23;;;;;;;4.00;1.90;;;20.40;99.90;;;;;;5074580;28;20502;-83
2022/07/24 02:18:50;;;;;;;5.83;2.60;;;20.40;99.90;;;;;;5074471;28;20483;-83
2022/07/24 02:21:17;;;;;;;2.77;1.53;;;20.30;99.90;;;;;;5074172;28;20816;-82
2022/07/24 02:23:43;;;;;;;2.93;1.50;;;20.30;99.90;;;;;;5074428;28;20444;-82
2022/07/24 02:26:10;;;;;;;1.73;1.40;;;20.30;99.90;;;;;;5074051;28;20822;-82
2022/07/24 02:28:37;;;;;;;3.23;2.40;;;20.20;99.90;;;;;;5074222;28;20460;-82
2022/07/24 02:31:05;;;;;;;1.90;1.80;;;20.20;99.90;;;;;;5074294;28;20444;-82
2022/07/24 02:33:32;;;;;;;5.67;1.70;;;20.20;99.90;;;;;;5073895;28;20567;-82
2022/07/24 02:35:59;;;;;;;3.93;1.73;;;20.20;99.90;;;;;;5074686;28;20445;-88
2022/07/24 02:38:25;;;;;;;1.50;1.40;;;20.10;99.90;;;;;;5074606;28;20480;-88
2022/07/24 02:40:52;;;;;;;1.27;1.10;;;20.10;99.90;;;;;;5074992;28;20453;-88
2022/07/24 02:43:19;;;;;;;2.13;1.40;;;20.10;99.90;;;;;;5074735;28;20441;-88
2022/07/24 02:45:45;;;;;;;2.97;2.37;;;20.10;99.90;;;;;;5074552;28;20967;-88
2022/07/24 02:48:14;;;;;;;2.10;1.60;;;20.00;99.90;;;;;;5075308;28;20491;-88
2022/07/24 02:50:40;;;;;;;3.13;1.97;;;20.00;99.90;;;;;;5074143;28;20447;-88
2022/07/24 02:53:07;;;;;;;1.83;1.53;;;20.00;99.90;;;;;;5074569;28;20441;-88
2022/07/24 02:55:34;;;;;;;1.53;1.20;;;20.00;99.90;;;;;;5074641;28;20453;-88
2022/07/24 02:58:01;;;;;;;2.80;1.40;;;19.90;99.90;;;;;;5074601;28;20453;-88
2022/07/24 03:00:28;;;;;;;3.30;1.97;;;19.90;99.90;;;;;;5074465;28;20444;-88
2022/07/24 03:02:55;;;;;;;2.80;1.53;;;19.90;99.90;;;;;;5074538;28;20448;-88
2022/07/24 03:05:23;;;;;;;2.83;1.43;;;19.80;99.90;;;;;;5074724;28;20455;-89
2022/07/24 03:07:49;;;;;;;3.10;1.97;;;19.80;99.90;;;;;;5074553;28;20620;-88
2022/07/24 03:10:16;;;;;;;4.90;2.30;;;19.80;99.90;;;;;;5074520;28;20460;-88
2022/07/24 03:12:44;;;;;;;2.00;1.27;;;19.80;99.90;;;;;;5074160;28;20963;-88
2022/07/24 03:15:12;;;;;;;2.60;1.60;;;19.80;99.90;;;;;;5074298;28;20492;-88
2022/07/24 03:17:39;;;;;;;1.60;1.50;;;19.80;99.90;;;;;;5074525;28;20452;-88
2022/07/24 03:20:07;;;;;;;1.77;1.00;;;19.70;99.90;;;;;;5074502;28;20491;-88
2022/07/24 03:22:35;;;;;;;2.33;1.60;;;19.70;99.90;;;;;;5073976;28;20459;-88
2022/07/24 03:25:02;;;;;;;2.97;1.90;;;19.70;99.90;;;;;;5074302;28;20452;-88
2022/07/24 03:27:28;;;;;;;4.73;2.77;;;19.70;99.90;;;;;;5074267;28;20451;-88
2022/07/24 03:29:55;;;;;;;1.50;1.20;;;19.60;99.90;;;;;;5074208;28;20473;-89
2022/07/24 03:32:22;;;;;;;2.50;2.30;;;19.60;99.90;;;;;;5074130;28;20452;-88
2022/07/24 03:34:49;;;;;;;3.80;2.00;;;19.60;99.90;;;;;;5074050;28;20568;-88
2022/07/24 03:37:16;;;;;;;3.30;1.63;;;19.60;99.90;;;;;;5073833;28;20952;-88
2022/07/24 03:39:44;;;;;;;1.40;1.30;;;19.60;99.90;;;;;;5073747;28;20980;-88
2022/07/24 03:42:11;;;;;;;2.60;1.67;;;19.50;99.90;;;;;;5074109;28;20441;-88
2022/07/24 03:44:37;;;;;;;2.60;1.40;;;19.50;99.90;;;;;;5073384;28;20800;-81
2022/07/24 03:47:05;;;;;;;3.13;1.47;;;19.50;99.90;;;;;;5073522;28;20440;-81
2022/07/24 03:49:32;;;;;;;4.50;2.57;;;19.50;99.90;;;;;;5073208;28;20475;-81
2022/07/24 03:51:58;;;;;;;1.27;0.90;;;19.50;99.90;;;;;;5072873;28;20510;-81
2022/07/24 03:54:25;;;;;;;1.83;1.73;;;19.50;99.90;;;;;;5073194;28;20481;-81
2022/07/24 03:56:53;;;;;;;4.33;2.07;;;19.50;99.90;;;;;;5073387;28;20536;-81
2022/07/24 03:59:20;;;;;;;3.67;1.73;;;19.50;99.90;;;;;;5073117;28;20469;-81
2022/07/24 04:01:47;;;;;;;3.70;1.87;;;19.50;99.90;;;;;;5073296;28;20452;-81
2022/07/24 04:04:14;;;;;;;3.50;1.50;;;19.40;99.90;;;;;;5077208;28;20484;-80
2022/07/24 04:06:41;;;;;;;3.30;2.23;;;19.40;99.90;;;;;;5077064;28;20447;-81
2022/07/24 04:09:09;;;;;;;2.20;1.70;;;19.40;99.90;;;;;;5076964;28;20522;-81
2022/07/24 04:11:36;;;;;;;1.60;1.50;;;19.40;99.90;;;;;;5076982;28;20444;-81
2022/07/24 04:14:04;;;;;;;3.13;1.80;;;19.40;99.90;;;;;;5076852;28;20483;-81
2022/07/24 04:16:31;;;;;;;1.93;1.37;;;19.40;99.90;;;;;;5076869;28;20819;-81
2022/07/24 04:18:57;;;;;;;3.33;1.60;;;19.40;99.90;;;;;;5076772;28;20487;-81
2022/07/24 04:21:24;;;;;;;3.80;2.37;;;19.40;99.90;;;;;;5076757;28;20452;-81
2022/07/24 04:23:51;;;;;;;2.33;1.37;;;19.50;99.90;;;;;;5076407;28;20936;-81
2022/07/24 04:26:17;;;;;;;3.03;1.43;;;19.50;99.90;;;;;;5076396;28;20452;-81
2022/07/24 04:28:45;;;;;;;3.27;1.50;;;19.60;99.90;;;;;;5076833;28;20460;-81
2022/07/24 04:31:13;;;;;;;4.37;2.40;;;19.60;99.90;;;;;;5076614;28;20448;-81
2022/07/24 04:33:40;;;;;;;3.00;1.50;;;19.60;99.90;;;;;;5076131;28;20967;-81
2022/07/24 04:36:07;;;;;;;3.53;1.77;;;19.60;99.90;;;;;;5076737;28;20449;-89
2022/07/24 04:38:34;;;;;;;2.43;2.20;;;19.70;99.90;;;;;;5076833;28;20495;-88
2022/07/24 04:41:00;;;;;;;3.73;2.00;;;19.70;99.90;;;;;;5077183;28;20455;-88
2022/07/24 04:43:27;;;;;;;1.67;1.30;;;19.70;99.90;;;;;;5077204;28;20440;-88
2022/07/24 04:45:54;;;;;;;2.70;1.30;;;19.70;99.90;;;;;;5077436;28;20448;-88
2022/07/24 04:48:22;;;;;;;1.77;1.50;;;19.70;99.90;;;;;;5076991;28;20444;-88
2022/07/24 04:50:49;;;;;;;4.97;2.80;;;19.80;99.90;;;;;;5077010;28;20809;-88
2022/07/24 04:53:15;;;;;;;3.00;1.77;;;19.80;99.90;;;;;;5076861;28;20444;-88
2022/07/24 04:55:42;;;;;;;2.03;1.80;;;19.90;99.90;;;;;;5076943;28;20477;-88
2022/07/24 04:58:09;;;;;;;2.40;1.40;;;19.90;99.90;;;;;;5077196;28;20448;-88
2022/07/24 05:00:36;;;;;;;3.40;2.50;;;20.00;99.90;;;;;;5076329;28;20452;-81
2022/07/24 05:03:03;;;;;;;3.23;1.67;;;19.90;99.90;;;;;;5076087;28;20448;-81
2022/07/24 05:05:31;;;;;;;2.00;1.40;;;20.00;99.90;;;;;;5075961;28;20799;-81
2022/07/24 05:07:57;;;;;;;2.23;1.90;;;20.00;99.90;;;;;;5075965;28;20434;-81
2022/07/24 05:10:24;;;;;;;2.77;1.70;;;20.10;99.90;;;;;;5076257;28;20469;-88
2022/07/24 05:12:51;;;;;;;1.83;1.30;;;20.30;99.90;;;;;;5076235;28;20932;-88
2022/07/24 05:15:17;;;;;;;3.83;2.10;;;20.30;99.90;;;;;;5076706;28;20484;-88
2022/07/24 05:17:44;;;;;;;2.60;1.70;;;20.40;99.90;;;;;;5076537;28;20799;-88
2022/07/24 05:20:11;;;;;;;3.23;2.00;;;20.50;99.90;;;;;;5075972;28;20991;-88
2022/07/24 05:22:39;;;;;;;2.50;1.90;;;20.50;99.90;;;;;;5076198;28;20453;-88
2022/07/24 05:25:07;;;;;;;2.20;1.50;;;20.60;99.90;;;;;;5075963;28;20441;-88
2022/07/24 05:27:34;;;;;;;5.90;2.83;;;20.60;99.90;;;;;;5076369;28;20541;-88
2022/07/24 05:30:01;;;;;;;4.80;2.70;;;20.70;99.90;;;;;;5076215;28;20468;-89
2022/07/24 05:32:28;;;;;;;1.53;1.43;;;20.80;99.90;;;;;;5076386;28;20452;-88
2022/07/24 05:34:54;;;;;;;3.07;2.30;;;20.80;99.90;;;;;;5076161;28;20484;-88
2022/07/24 05:37:21;;;;;;;4.70;2.30;;;20.90;99.90;;;;;;5076193;28;20849;-88
2022/07/24 05:39:49;;;;;;;3.97;2.20;;;20.90;99.90;;;;;;5075971;28;20467;-85
2022/07/24 05:42:17;;;;;;;3.80;1.87;;;21.00;99.90;;;;;;5075426;28;20484;-85
2022/07/24 05:44:43;;;;;;;3.40;2.10;;;21.00;99.90;;;;;;5075283;28;20448;-85
2022/07/24 05:47:10;;;;;;;2.97;1.80;;;21.10;99.90;;;;;;5075486;28;20456;-85
2022/07/24 05:49:37;;;;;;;1.57;1.47;;;21.20;99.90;;;;;;5074805;28;20976;-84
2022/07/24 05:52:04;;;;;;;4.77;2.27;;;21.20;99.90;;;;;;5075077;28;20456;-85
2022/07/24 05:54:31;;;;;;;1.87;1.03;;;21.30;99.90;;;;;;5074976;28;20487;-85
2022/07/24 05:56:59;;;;;;;1.83;1.73;;;21.40;99.90;;;;;;5074976;28;20448;-85
2022/07/24 05:59:25;;;;;;;3.37;1.37;;;21.50;99.90;;;;;;5074585;28;20994;-85
2022/07/24 06:01:52;;;;;;;2.70;1.80;;;21.50;99.90;;;;;;5074978;28;20451;-85
2022/07/24 06:04:19;;;;;;;2.20;1.47;;;21.60;99.90;;;;;;5074875;28;20455;-84
2022/07/24 06:06:45;;;;;;;1.90;1.70;;;21.70;99.90;;;;;;5074760;28;20444;-85
2022/07/24 06:09:12;;;;;;;2.23;1.67;;;21.80;99.90;;;;;;5074683;28;20476;-85
2022/07/24 06:11:39;;;;;;;3.70;2.50;;;22.00;99.90;;;;;;5074427;28;20903;-85
2022/07/24 06:14:07;;;;;;;1.60;1.50;;;22.10;99.90;;;;;;5074596;28;20451;-85
2022/07/24 06:16:34;;;;;;;1.80;1.70;;;22.20;99.90;;;;;;5074611;28;20448;-85
2022/07/24 06:19:01;;;;;;;3.00;1.67;;;22.30;99.90;;;;;;5074191;28;20836;-85
2022/07/24 06:21:28;;;;;;;2.83;1.67;;;22.40;99.90;;;;;;5074794;28;20455;-85
2022/07/24 06:23:55;;;;;;;1.87;1.40;;;22.60;99.90;;;;;;5074446;28;20444;-85
2022/07/24 06:26:22;;;;;;;3.27;2.13;;;22.70;99.90;;;;;;5073469;28;20527;-82
2022/07/24 06:28:49;;;;;;;4.23;2.10;;;22.90;99.90;;;;;;5073943;28;20476;-82
2022/07/24 06:31:17;;;;;;;1.60;1.40;;;23.00;99.90;;;;;;5074311;28;20206;-82
2022/07/24 06:33:43;;;;;;;2.20;1.57;;;23.20;99.90;;;;;;5074002;28;20649;-82
2022/07/24 06:36:10;;;;;;;2.00;1.70;;;23.30;99.90;;;;;;5074318;28;20480;-82
2022/07/24 06:38:37;;;;;;;3.27;1.70;;;23.50;99.90;;;;;;5073770;28;20238;-82
2022/07/24 06:41:04;;;;;;;3.22;1.60;;;23.70;99.90;;;;;;5074152;28;20248;-81
2022/07/24 06:43:31;;;;;;;1.97;1.87;;;23.90;99.90;;;;;;5074424;28;20550;-82
2022/07/24 06:45:58;;;;;;;1.90;1.80;;;24.10;99.90;;;;;;5074062;28;20200;-82
2022/07/24 06:48:26;;;;;;;3.72;2.08;;;24.20;99.90;;;;;;5073883;28;20225;-82
2022/07/24 06:50:53;;;;;;;2.58;1.92;;;24.40;99.90;;;;;;5073896;28;20202;-82
2022/07/24 06:53:19;;;;;;;2.95;1.85;;;24.60;99.90;;;;;;5073579;28;20556;-83
2022/07/24 06:55:47;;;;;;;2.60;1.45;;;24.80;99.90;;;;;;5073788;28;20222;-82
2022/07/24 06:58:14;;;;;;;2.20;1.90;;;24.90;99.90;;;;;;5073757;28;20206;-82
2022/07/24 07:00:41;;;;;;;2.67;2.35;;;24.90;99.90;;;;;;5073615;28;20202;-82
2022/07/24 07:03:07;;;;;;;2.45;1.85;;;24.90;99.90;;;;;;5073783;28;20233;-82
2022/07/24 07:05:35;;;;;;;5.03;1.83;;;25.00;99.90;;;;;;5073454;28;20692;-82
2022/07/24 07:08:02;;;;;;;1.45;1.35;;;25.00;99.90;;;;;;5073667;28;20202;-82
2022/07/24 07:10:29;;;;;;;2.83;1.55;;;25.00;99.90;;;;;;5073656;28;20579;-83
2022/07/24 07:12:56;;;;;;;2.90;1.67;;;25.10;99.90;;;;;;5073651;28;20255;-82
2022/07/24 07:15:23;;;;;;;2.80;2.20;;;25.10;99.90;;;;;;5073534;28;20222;-82
2022/07/24 07:17:50;;;;;;;2.55;1.63;;;25.20;99.90;;;;;;5073585;28;20209;-83
2022/07/24 07:20:16;;;;;;;2.60;1.95;;;25.30;99.90;;;;;;5073471;28;20222;-83
2022/07/24 07:22:45;;;;;;;2.47;2.28;;;25.40;99.90;;;;;;5073451;28;20201;-82
2022/07/24 07:25:12;;;;;;;1.98;1.77;;;25.60;99.90;;;;;;5073444;28;20201;-82
2022/07/24 07:27:40;;;;;;;2.42;2.05;;;25.70;99.90;;;;;;5073164;28;20684;-82
2022/07/24 07:30:07;;;;;;;3.17;1.80;;;25.80;99.90;;;;;;5073394;28;20245;-83
2022/07/24 07:32:34;;;;;;;1.60;1.50;;;25.90;99.90;;;;;;5073379;28;20201;-82
2022/07/24 07:35:01;;;;;;;5.43;1.65;;;25.90;99.90;;;;;;5073034;28;20229;-82
2022/07/24 07:37:28;;;;;;;1.65;1.55;;;26.00;99.90;;;;;;5072979;28;20182;-83
2022/07/24 07:39:57;;;;;;;3.25;1.33;;;26.20;99.90;;;;;;5073329;28;20232;-83
2022/07/24 07:42:24;;;;;;;2.00;1.73;;;26.40;99.90;;;;;;5073296;28;20202;-82
2022/07/24 07:44:51;;;;;;;7.15;1.95;;;26.60;99.90;;;;;;5073239;28;20209;-83
2022/07/24 07:47:18;;;;;;;3.38;2.05;;;26.80;99.90;;;;;;5073208;28;20210;-83
2022/07/24 07:49:44;;;;;;;2.55;1.83;;;26.90;99.90;;;;;;5073103;28;20231;-83
2022/07/24 07:52:11;;;;;;;2.03;1.42;;;27.00;99.90;;;;;;5073152;28;20198;-83
2022/07/24 07:54:38;;;;;;;1.73;1.30;;;27.10;99.90;;;;;;5073060;28;20206;-83
2022/07/24 07:57:06;;;;;;;2.75;1.60;;;27.10;99.90;;;;;;5073167;28;20205;-83
2022/07/24 07:59:33;;;;;;;2.55;1.30;;;27.20;99.90;;;;;;5073052;28;20232;-83
2022/07/24 08:01:59;;;;;;;2.25;1.98;;;27.40;99.90;;;;;;5073101;28;20210;-83
2022/07/24 08:04:26;;;;;;;1.50;1.40;;;27.50;99.90;;;;;;5073132;28;20194;-83
2022/07/24 08:06:53;;;;;;;1.70;1.60;;;27.60;99.90;;;;;;5072991;28;20202;-82
2022/07/24 08:09:20;;;;;;;2.10;1.60;;;27.60;99.90;;;;;;5072667;28;20238;-83
2022/07/24 08:11:47;;;;;;;7.43;1.50;;;27.70;99.90;;;;;;5072986;28;20217;-83
2022/07/24 08:14:15;;;;;;;1.95;1.58;;;27.80;99.90;;;;;;5072977;28;20207;-83
2022/07/24 08:16:42;;;;;;;2.22;1.67;;;27.90;99.90;;;;;;5073018;28;20232;-83
2022/07/24 08:19:08;;;;;;;3.33;1.75;;;28.10;99.40;;;;;;5072648;28;20228;-83
2022/07/24 08:21:35;;;;;;;2.60;2.10;;;28.50;99.40;;;;;;5073136;28;20210;-83
2022/07/24 08:24:03;;;;;;;2.28;1.98;;;28.60;98.20;;;;;;5072582;28;20213;-83
2022/07/24 08:26:30;;;;;;;1.95;1.48;;;28.70;97.60;;;;;;5072605;28;20208;-83
2022/07/24 08:28:57;;;;;;;1.50;1.40;;;28.80;97.10;;;;;;5072456;28;20709;-83
2022/07/24 08:31:26;;;;;;;2.30;1.80;;;28.80;97.00;;;;;;5072518;28;20743;-83
2022/07/24 08:33:53;;;;;;;4.90;1.90;;;28.70;96.70;;;;;;5072791;28;20208;-83
2022/07/24 08:36:20;;;;;;;2.67;1.65;;;28.70;97.30;;;;;;5072715;28;20225;-83
2022/07/24 08:38:46;;;;;;;2.35;1.88;;;28.60;97.40;;;;;;5072313;28;20576;-83
2022/07/24 08:41:14;;;;;;;1.65;1.48;;;28.60;98.10;;;;;;5072353;28;20204;-83
2022/07/24 08:43:40;;;;;;;3.35;2.42;;;28.50;97.50;;;;;;5072704;28;20213;-85
2022/07/24 08:46:10;;;;;;;1.42;1.33;;;28.50;97.40;;;;;;5072941;28;20200;-83
2022/07/24 08:48:43;;;;;;;1.48;1.38;;;28.50;97.60;;;;;;5073779;28;20274;-83
2022/07/24 08:51:11;;;;;;;1.63;1.52;;;28.70;97.10;;;;;;5076302;28;20197;-83
2022/07/24 08:53:38;;;;;;;1.92;1.70;;;28.80;96.90;;;;;;5076282;28;20205;-83
2022/07/24 08:56:05;;;;;;;1.70;1.58;;;28.90;97.50;;;;;;5076098;28;20222;-83
2022/07/24 08:58:37;;;;;;;1.77;1.42;;;28.90;96.30;;;;;;5076048;28;20219;-83
2022/07/24 09:01:04;;;;;;;1.75;1.65;;;29.00;95.70;;;;;;5076965;28;20188;-83
2022/07/24 09:03:41;;;;;;;1.60;1.45;;;29.10;94.90;;;;;;5076074;28;20585;-83
2022/07/24 09:06:08;;;;;;;2.10;1.90;;;29.10;94.70;;;;;;5075959;28;20224;-83
2022/07/24 09:08:35;;;;;;;2.38;1.73;;;29.20;94.90;;;;;;5075903;28;20257;-82
2022/07/24 09:11:04;;;;;;;2.10;1.90;;;29.30;92.80;;;;;;5075884;28;20209;-83
2022/07/24 09:14:29;;;;;;;1.63;1.27;;;29.30;92.80;;;;;;5075549;28;20638;-83
2022/07/24 09:16:24;;;;;;;5.82;2.13;;;29.30;92.50;;;;;;5075293;28;20314;-83
2022/07/24 09:19:04;;;;;;;2.80;1.98;;;29.40;92.90;;;;;;5075546;28;20234;-82
2022/07/24 09:21:33;;;;;;;2.30;1.95;;;29.50;93.10;;;;;;5075812;28;20190;-83
2022/07/24 09:24:02;;;;;;;3.45;2.45;;;29.70;93.10;;;;;;5075730;28;20214;-83
2022/07/24 09:26:44;;;;;;;3.47;2.20;;;29.90;92.70;;;;;;5075655;28;20280;-83
2022/07/24 09:29:15;;;;;;;3.00;2.20;;;30.10;92.50;;;;;;5075563;28;20271;-83
2022/07/24 09:31:53;;;;;;;2.00;1.73;;;30.20;92.50;;;;;;5075551;28;20208;-83
2022/07/24 09:34:21;;;;;;;3.72;1.70;;;30.20;92.10;;;;;;5075180;28;20565;-80
2022/07/24 09:36:59;;;;;;;3.08;1.95;;;30.20;90.20;;;;;;5075058;28;20223;-81
2022/07/24 09:39:26;;;;;;;3.20;2.05;;;30.20;90.50;;;;;;5074906;28;20240;-81
2022/07/24 09:41:57;;;;;;;1.80;1.70;;;30.10;91.50;;;;;;5075556;28;20212;-83
2022/07/24 09:44:25;;;;;;;2.15;2.03;;;30.20;91.20;;;;;;5075019;28;20202;-84
2022/07/24 09:46:56;;;;;;;2.35;1.85;;;30.20;90.40;;;;;;5075123;28;20202;-83
2022/07/24 09:49:26;;;;;;;1.98;1.70;;;30.40;89.80;;;;;;5075137;28;20636;-84
2022/07/24 09:52:11;;;;;;;2.75;2.20;;;30.50;86.50;;;;;;5074988;28;20209;-84
2022/07/24 09:54:39;;;;;;;2.50;2.13;;;30.60;88.80;;;;;;5075105;28;20212;-84
2022/07/24 09:57:20;;;;;;;2.10;1.92;;;30.70;87.20;;;;;;5075159;28;20224;-84
2022/07/24 09:59:49;;;;;;;2.92;2.30;;;30.80;87.00;;;;;;5074943;28;20226;-83
2022/07/24 10:02:18;;;;;;;2.83;1.83;;;30.80;86.00;;;;;;5074933;28;20202;-85
2022/07/24 10:04:47;;;;;;;2.40;2.28;;;30.70;86.80;;;;;;5074829;28;20202;-84
2022/07/24 10:07:16;;;;;;;2.20;2.00;;;30.70;86.60;;;;;;5075050;28;20209;-83
2022/07/24 10:09:45;;;;;;;3.03;1.85;;;30.70;87.20;;;;;;5074938;28;20232;-83
2022/07/24 10:12:14;;;;;;;2.38;1.52;;;30.80;84.10;;;;;;5074672;28;20202;-83
2022/07/24 10:14:42;;;;;;;1.92;1.70;;;30.90;83.40;;;;;;5074648;28;20208;-83
2022/07/24 10:17:10;;;;;;;2.42;1.90;;;30.80;82.70;;;;;;5074257;28;20697;-84
2022/07/24 10:19:41;;;;;;;4.45;1.70;;;30.50;84.00;;;;;;5074567;28;20210;-83
2022/07/24 10:22:13;;;;;;;2.05;1.65;;;30.30;84.50;;;;;;5074773;28;20206;-83
2022/07/24 10:24:56;;;;;;;1.20;1.20;;;30.20;84.70;;;;;;5074483;28;20195;-84
2022/07/24 10:27:29;;;;;;;4.03;2.25;;;30.20;84.40;;;;;;5074395;28;20182;-83
2022/07/24 10:29:57;;;;;;;3.90;2.05;;;30.30;84.60;;;;;;5074578;28;20222;-83
2022/07/24 10:32:25;;;;;;;2.10;1.65;;;30.40;83.00;;;;;;5074319;28;20209;-83
2022/07/24 10:35:05;;;;;;;2.58;2.00;;;30.60;82.60;;;;;;5074000;28;20198;-84
2022/07/24 10:37:42;;;;;;;3.55;2.25;;;31.00;81.70;;;;;;5073999;28;20300;-83
2022/07/24 10:40:17;;;;;;;1.73;1.63;;;31.30;78.50;;;;;;5074178;28;20233;-83
2022/07/24 10:43:10;;;;;;;1.65;1.55;;;31.40;79.00;;;;;;5074729;28;20564;-83
2022/07/24 10:45:38;;;;;;;2.00;1.80;;;31.40;77.90;;;;;;5074063;28;20198;-81
2022/07/24 10:48:35;;;;;;;2.92;1.90;;;31.30;78.90;;;;;;5074506;28;20202;-81
2022/07/24 10:51:08;;;;;;;1.95;1.85;;;31.20;80.20;;;;;;5074014;28;20201;-82
2022/07/24 10:53:51;;;;;;;1.55;1.20;;;31.00;83.60;;;;;;5074001;28;20210;-82
2022/07/24 10:56:22;;;;;;;3.15;2.05;;;30.80;82.60;;;;;;5073885;28;20209;-85
2022/07/24 10:59:04;;;;;;;2.08;1.88;;;30.70;83.50;;;;;;5073778;28;20222;-81
2022/07/24 11:01:38;;;;;;;2.83;2.63;;;30.70;83.70;;;;;;5073887;28;20226;-86
2022/07/24 11:04:25;;;;;;;2.28;2.03;;;30.80;83.80;;;;;;5074343;28;20634;-91
2022/07/24 11:06:55;;;;;;;6.97;2.60;;;30.90;84.00;;;;;;5073534;28;20661;-81
2022/07/24 11:09:24;;;;;;;2.40;2.20;;;31.00;81.10;;;;;;5073614;28;20222;-81
2022/07/24 11:12:07;;;;;;;2.75;1.75;;;30.70;82.30;;;;;;5073264;28;20209;-81
2022/07/24 11:14:50;;;;;;;1.95;1.80;;;30.40;83.60;;;;;;5073657;28;20212;-81
2022/07/24 11:17:40;;;;;;;1.88;1.77;;;30.10;85.70;;;;;;5073539;28;20302;-81
2022/07/24 11:20:09;;;;;;;2.20;2.10;;;30.10;83.40;;;;;;5073361;28;20222;-81
2022/07/24 11:22:47;;;;;;;2.45;2.25;;;29.90;81.40;;;;;;5073232;28;20205;-81
2022/07/24 11:25:17;;;;;;;2.00;1.90;;;30.00;85.30;;;;;;5073220;28;20629;-81
2022/07/24 11:27:50;;;;;;;1.77;1.67;;;30.10;81.90;;;;;;5073489;28;20229;-81
2022/07/24 11:30:18;;;;;;;2.20;2.00;;;30.20;81.50;;;;;;5073455;28;20230;-81
2022/07/24 11:32:46;;;;;;;3.60;2.15;;;30.30;82.10;;;;;;5073133;28;20201;-81
2022/07/24 11:35:13;;;;;;;3.30;2.25;;;30.30;84.70;;;;;;5073384;28;20208;-81
2022/07/24 11:37:41;;;;;;;2.97;2.15;;;30.40;80.70;;;;;;5073159;28;20249;-81
2022/07/24 11:40:10;;;;;;;3.55;1.83;;;30.40;80.50;;;;;;5073108;28;20705;-81
2022/07/24 11:42:38;;;;;;;2.67;2.13;;;30.40;77.50;;;;;;5073552;28;20205;-81
2022/07/24 11:45:06;;;;;;;1.83;1.67;;;30.40;79.10;;;;;;5074808;28;20204;-81
2022/07/24 11:47:32;;;;;;;2.25;1.60;;;30.40;78.50;;;;;;5074329;28;20203;-81
2022/07/24 11:50:02;;;;;;;1.70;1.30;;;30.30;77.50;;;;;;5072880;28;20592;-80
2022/07/24 11:52:32;;;;;;;2.30;2.05;;;30.30;78.00;;;;;;5073264;28;20190;-80
2022/07/24 11:55:01;;;;;;;2.90;2.15;;;30.30;76.20;;;;;;5073185;28;20205;-80
2022/07/24 11:57:29;;;;;;;5.13;2.40;;;30.10;77.70;;;;;;5073110;28;20275;-80
2022/07/24 11:59:57;;;;;;;2.70;1.60;;;30.10;78.20;;;;;;5073355;28;20226;-80
2022/07/24 12:02:25;;;;;;;2.15;1.95;;;30.10;74.90;;;;;;5072851;28;20672;-80
2022/07/24 12:04:52;;;;;;;1.23;1.13;;;30.20;74.20;;;;;;5072827;28;20740;-80
2022/07/24 12:07:23;;;;;;;1.48;1.38;;;30.30;73.50;;;;;;5073118;28;20201;-80
2022/07/24 12:09:51;;;;;;;1.95;1.73;;;30.20;75.00;;;;;;5072733;28;20737;-80
2022/07/24 12:12:26;;;;;;;2.60;1.80;;;30.20;74.70;;;;;;5073032;28;20204;-80
2022/07/24 12:15:01;;;;;;;2.17;1.75;;;30.20;75.20;;;;;;5072707;28;20212;-80
2022/07/24 12:17:30;;;;;;;3.05;2.28;;;30.30;74.30;;;;;;5072974;28;20235;-79
2022/07/24 12:20:00;;;;;;;1.70;1.60;;;30.30;75.90;;;;;;5072906;28;20229;-80
2022/07/24 12:22:29;;;;;;;2.72;2.50;;;30.20;75.00;;;;;;5073000;28;20193;-80
2022/07/24 12:24:57;;;;;;;2.65;1.40;;;30.10;76.10;;;;;;5076515;28;20211;-81
2022/07/24 12:27:41;;;;;;;2.08;1.75;;;30.10;77.20;;;;;;5076705;28;20203;-81
2022/07/24 12:30:27;;;;;;;2.15;2.05;;;30.20;77.50;;;;;;5076627;28;20224;-80
2022/07/24 12:32:57;;;;;;;2.40;1.98;;;30.10;75.90;;;;;;5076650;28;20196;-80
2022/07/24 12:35:26;;;;;;;3.50;1.98;;;30.10;74.70;;;;;;5077133;28;20193;-80
2022/07/24 12:37:53;;;;;;;2.70;1.60;;;30.00;74.20;;;;;;5076109;28;20327;-81
2022/07/24 12:40:25;;;;;;;2.05;1.70;;;29.90;75.70;;;;;;5076490;28;20214;-80
2022/07/24 12:43:01;;;;;;;2.80;1.90;;;29.80;76.60;;;;;;5076150;28;20656;-80
2022/07/24 12:45:28;;;;;;;2.00;1.83;;;29.80;77.70;;;;;;5076141;28;20200;-80
2022/07/24 12:48:20;;;;;;;2.70;2.20;;;29.80;75.40;;;;;;5076350;28;20199;-83
2022/07/24 12:51:02;;;;;;;1.67;1.45;;;29.90;75.50;;;;;;5076008;28;20641;-83
2022/07/24 12:53:31;;;;;;;2.20;1.95;;;29.80;75.70;;;;;;5074484;28;20680;-83
2022/07/24 12:56:07;;;;;;;2.28;1.80;;;29.80;76.00;;;;;;5076252;28;20218;-83